Terminal Aerodrome Forecast
Issued by NWS Albany, NY

Home | Current Version | Previous Version | Text Only | Print | Product List | Glossary On
Versions: 1 2 3 4 5 6 7 8 9 10 11 12 13 14 15 16 17 18 19 20 21 22 23 24 25 26 27
127
FTUS41 KALY 121122
TAFGFL
TAF
KGFL 121122Z 1212/1312 00000KT P6SM SKC
     FM121500 20006KT P6SM FEW040 SCT250
     FM122100 20009KT P6SM BKN040 BKN250
     FM130400 20003KT P6SM VCSH BKN040 BKN080
     FM131000 30010KT P6SM BKN080=

USA.gov is the U.S. government's official web portal to all federal, state and local government web resources and services.